createdAt,value
2018-07-24T00:01:03.655Z,21.64
2018-07-24T00:03:34.098Z,21.61
2018-07-24T00:06:04.440Z,21.56
2018-07-24T00:08:35.399Z,21.49
2018-07-24T00:11:05.794Z,21.45
2018-07-24T00:13:36.186Z,21.38
2018-07-24T00:16:06.517Z,21.23
2018-07-24T00:18:36.387Z,21.20
2018-07-24T00:21:07.059Z,21.23
2018-07-24T00:23:37.415Z,21.15
2018-07-24T00:26:07.926Z,21.11
2018-07-24T00:28:38.361Z,21.11
2018-07-24T00:31:09.227Z,21.06
2018-07-24T00:33:39.689Z,21.05
2018-07-24T00:36:10.256Z,21.03
2018-07-24T00:38:40.626Z,21.00
2018-07-24T00:41:11.070Z,20.94
2018-07-24T00:43:41.495Z,20.93
2018-07-24T00:46:12.168Z,20.94
2018-07-24T00:48:42.879Z,20.88
2018-07-24T00:51:13.390Z,20.90
2018-07-24T00:53:43.980Z,20.85
2018-07-24T00:56:14.240Z,20.84
2018-07-24T00:58:44.848Z,20.83
2018-07-24T01:01:15.317Z,20.81
2018-07-24T01:03:45.796Z,20.74
2018-07-24T01:06:16.251Z,20.76
2018-07-24T01:08:46.599Z,20.74
2018-07-24T01:11:17.167Z,20.75
2018-07-24T01:13:47.663Z,20.73
2018-07-24T01:16:18.174Z,20.74
2018-07-24T01:18:48.559Z,20.65
2018-07-24T01:21:19.018Z,20.66
2018-07-24T01:23:49.514Z,20.62
2018-07-24T01:26:20.133Z,20.59
2018-07-24T01:28:50.669Z,20.60
2018-07-24T01:31:21.046Z,20.57
2018-07-24T01:33:51.502Z,20.53
2018-07-24T01:36:21.894Z,20.58
2018-07-24T01:38:52.463Z,20.55
2018-07-24T01:41:22.958Z,20.54
2018-07-24T01:43:53.519Z,20.56
2018-07-24T01:46:23.887Z,20.53
2018-07-24T01:48:54.402Z,20.43
2018-07-24T01:51:25.005Z,20.40
2018-07-24T01:53:55.357Z,20.37
2018-07-24T01:56:25.764Z,20.29
2018-07-24T01:58:56.109Z,20.28
2018-07-24T02:01:26.691Z,20.22
2018-07-24T02:03:57.337Z,20.17
2018-07-24T02:06:27.390Z,20.15
2018-07-24T02:08:57.823Z,20.17
2018-07-24T02:11:28.278Z,20.16
2018-07-24T02:13:58.844Z,20.16
2018-07-24T02:16:29.078Z,20.17
2018-07-24T02:18:59.091Z,20.29
2018-07-24T02:21:29.052Z,20.29
2018-07-24T02:23:59.640Z,20.29
2018-07-24T02:26:29.946Z,20.28
2018-07-24T02:29:00.322Z,20.26
2018-07-24T02:31:30.775Z,20.23
2018-07-24T02:34:01.331Z,20.18
2018-07-24T02:36:31.844Z,20.15
2018-07-24T02:39:02.455Z,20.12
2018-07-24T02:41:32.773Z,20.11
2018-07-24T02:44:03.359Z,20.09
2018-07-24T02:46:33.781Z,20.09
2018-07-24T02:49:05.076Z,20.05
2018-07-24T02:51:35.347Z,20.05
2018-07-24T02:54:05.893Z,20.04
2018-07-24T02:56:36.152Z,19.97
2018-07-24T02:59:06.892Z,19.95
2018-07-24T03:01:37.234Z,19.98
2018-07-24T03:04:07.792Z,19.92
2018-07-24T03:06:37.991Z,19.96
2018-07-24T03:09:10.947Z,19.96
2018-07-24T03:11:41.405Z,19.92
2018-07-24T03:14:11.767Z,19.90
2018-07-24T03:16:41.726Z,19.96
2018-07-24T03:19:11.753Z,19.94
2018-07-24T03:21:41.785Z,19.91
2018-07-24T03:24:11.860Z,19.85
2018-07-24T03:26:41.819Z,19.77
2018-07-24T03:29:11.871Z,19.78
2018-07-24T03:31:41.839Z,19.75
2018-07-24T03:34:11.838Z,19.73
2018-07-24T03:36:42.178Z,19.77
2018-07-24T03:39:13.532Z,19.78
2018-07-24T03:41:43.529Z,19.80
2018-07-24T03:44:13.527Z,19.82
2018-07-24T03:46:43.597Z,19.79
2018-07-24T03:49:13.652Z,19.77
2018-07-24T03:51:43.650Z,19.76
2018-07-24T03:54:13.737Z,19.75
2018-07-24T03:56:43.839Z,19.78
2018-07-24T03:59:13.846Z,19.73
2018-07-24T04:01:43.897Z,19.74
2018-07-24T04:04:13.884Z,19.76
2018-07-24T04:06:50.652Z,19.64
2018-07-24T04:09:20.677Z,19.74
2018-07-24T04:11:50.690Z,19.70
2018-07-24T04:14:20.737Z,19.71
2018-07-24T04:16:50.849Z,19.76
2018-07-24T04:19:21.419Z,19.82
2018-07-24T04:21:51.697Z,19.80
2018-07-24T04:24:22.154Z,19.77
2018-07-24T04:26:52.579Z,19.82
2018-07-24T04:29:23.547Z,19.76
2018-07-24T04:31:54.039Z,19.80
2018-07-24T04:34:24.503Z,19.89
2018-07-24T04:36:55.631Z,19.87
2018-07-24T04:39:26.009Z,19.89
2018-07-24T04:41:56.050Z,19.96
2018-07-24T04:44:26.539Z,19.97
2018-07-24T04:46:56.921Z,20.03
2018-07-24T04:49:27.424Z,20.14
2018-07-24T04:51:57.794Z,20.11
2018-07-24T04:54:27.865Z,20.03
2018-07-24T04:56:57.863Z,20.02
2018-07-24T04:59:28.017Z,20.08
2018-07-24T05:01:57.996Z,20.09
2018-07-24T05:04:28.142Z,20.22
2018-07-24T05:06:58.216Z,20.32
2018-07-24T05:09:28.286Z,20.31
2018-07-24T05:11:58.279Z,20.35
2018-07-24T05:14:28.385Z,20.41
2018-07-24T05:16:58.948Z,20.41
2018-07-24T05:19:29.423Z,20.24
2018-07-24T05:21:59.421Z,20.24
2018-07-24T05:24:30.106Z,20.25
2018-07-24T05:27:00.841Z,20.28
2018-07-24T05:29:30.910Z,20.29
2018-07-24T05:32:00.979Z,20.40
2018-07-24T05:34:31.052Z,20.46
2018-07-24T05:37:01.179Z,20.51
2018-07-24T05:39:31.206Z,20.59
2018-07-24T05:42:01.220Z,20.69
2018-07-24T05:44:31.303Z,20.77
2018-07-24T05:47:01.305Z,20.88
2018-07-24T05:49:31.276Z,20.94
2018-07-24T05:52:01.219Z,20.99
2018-07-24T05:54:31.275Z,21.08
2018-07-24T05:57:01.283Z,21.15
2018-07-24T05:59:32.098Z,21.20
2018-07-24T06:02:02.164Z,21.29
2018-07-24T06:04:32.109Z,21.40
2018-07-24T06:07:02.117Z,21.47
2018-07-24T06:09:32.736Z,21.56
2018-07-24T06:12:02.982Z,21.67
2018-07-24T06:14:33.456Z,21.75
2018-07-24T06:17:10.573Z,21.87
2018-07-24T06:19:40.578Z,22.00
2018-07-24T06:22:10.579Z,22.04
2018-07-24T06:24:40.642Z,22.18
2018-07-24T06:27:11.180Z,22.31
2018-07-24T06:29:41.261Z,22.48
2018-07-24T06:32:11.852Z,22.47
2018-07-24T06:34:41.870Z,22.54
2018-07-24T06:37:11.846Z,22.64
2018-07-24T06:39:41.975Z,22.75
2018-07-24T06:42:12.318Z,22.75
2018-07-24T06:44:42.432Z,22.83
2018-07-24T06:47:12.523Z,22.93
2018-07-24T06:49:42.537Z,23.02
2018-07-24T06:52:12.571Z,23.10
2018-07-24T06:54:42.563Z,23.14
2018-07-24T06:57:12.549Z,23.33
2018-07-24T06:59:42.535Z,23.57
2018-07-24T07:02:12.547Z,23.68
2018-07-24T07:04:42.616Z,23.77
2018-07-24T07:07:13.065Z,23.85
2018-07-24T07:09:43.079Z,23.95
2018-07-24T07:12:13.404Z,24.00
2018-07-24T07:14:43.407Z,23.95
2018-07-24T07:17:13.695Z,24.01
2018-07-24T07:19:44.017Z,24.09
2018-07-24T07:22:15.385Z,24.18
2018-07-24T07:24:45.727Z,24.20
2018-07-24T07:27:16.384Z,24.24
2018-07-24T07:29:46.804Z,24.27
2018-07-24T07:32:17.363Z,24.34
2018-07-24T07:34:47.739Z,24.39
2018-07-24T07:37:17.673Z,24.53
2018-07-24T07:39:48.079Z,24.64
2018-07-24T07:42:18.641Z,24.74
2018-07-24T07:44:48.905Z,25.03
2018-07-24T07:47:19.310Z,25.12
2018-07-24T07:49:49.880Z,25.22
2018-07-24T07:52:20.336Z,25.14
2018-07-24T07:54:50.860Z,25.19
2018-07-24T07:57:21.457Z,25.38
2018-07-24T07:59:51.889Z,25.49
2018-07-24T08:02:22.383Z,25.52
2018-07-24T08:04:52.660Z,25.42
2018-07-24T08:07:23.337Z,25.49
2018-07-24T08:09:53.874Z,25.59
2018-07-24T08:12:24.362Z,25.68
2018-07-24T08:14:54.902Z,25.66
2018-07-24T08:17:25.303Z,25.82
2018-07-24T08:19:55.556Z,25.94
2018-07-24T08:22:26.139Z,25.81
2018-07-24T08:24:56.395Z,26.08
2018-07-24T08:27:26.727Z,26.15
2018-07-24T08:29:57.095Z,26.13
2018-07-24T08:32:27.596Z,26.46
2018-07-24T08:34:58.118Z,26.68
2018-07-24T08:37:28.258Z,26.87
2018-07-24T08:39:58.747Z,27.01
2018-07-24T08:42:29.165Z,27.10
2018-07-24T08:44:59.694Z,27.14
2018-07-24T08:47:29.757Z,27.33
2018-07-24T08:50:00.285Z,27.65
2018-07-24T08:52:30.781Z,27.91
2018-07-24T08:55:01.537Z,28.00
2018-07-24T08:57:32.411Z,27.70
2018-07-24T09:00:02.855Z,27.62
2018-07-24T09:02:33.558Z,27.73
2018-07-24T09:05:03.808Z,27.97
2018-07-24T09:07:34.167Z,28.22
2018-07-24T09:10:05.826Z,28.19
2018-07-24T09:12:42.904Z,28.34
2018-07-24T09:15:13.336Z,28.70
2018-07-24T09:17:43.739Z,28.97
2018-07-24T09:20:14.322Z,29.36
2018-07-24T09:22:44.899Z,29.50
2018-07-24T09:25:14.961Z,29.70
2018-07-24T09:27:45.411Z,29.56
2018-07-24T09:30:15.897Z,29.94
2018-07-24T09:32:46.394Z,29.79
2018-07-24T09:35:16.711Z,29.79
2018-07-24T09:37:47.238Z,30.04
2018-07-24T09:40:17.678Z,30.10
2018-07-24T09:42:48.064Z,30.04
2018-07-24T09:45:18.643Z,29.96
2018-07-24T09:47:48.920Z,30.13
2018-07-24T09:50:19.357Z,30.32
2018-07-24T09:52:49.629Z,30.65
2018-07-24T09:55:19.953Z,30.18
2018-07-24T09:57:50.477Z,30.41
2018-07-24T10:00:25.902Z,30.82
2018-07-24T10:02:56.405Z,31.01
2018-07-24T10:05:26.847Z,31.48
2018-07-24T10:07:57.416Z,31.56
2018-07-24T10:10:28.012Z,31.35
2018-07-24T10:12:58.578Z,31.33
2018-07-24T10:15:28.730Z,32.18
2018-07-24T10:17:59.267Z,32.01
2018-07-24T10:20:29.787Z,32.32
2018-07-24T10:23:00.478Z,32.21
2018-07-24T10:25:31.012Z,32.80
2018-07-24T10:28:01.477Z,33.04
2018-07-24T10:30:31.972Z,33.17
2018-07-24T10:33:02.400Z,33.03
2018-07-24T10:35:33.035Z,32.36
2018-07-24T10:38:03.247Z,31.59
2018-07-24T10:40:33.652Z,31.13
2018-07-24T10:43:04.350Z,30.98
2018-07-24T10:45:34.724Z,30.91
2018-07-24T10:48:04.940Z,30.97
2018-07-24T10:50:35.444Z,31.75
2018-07-24T10:53:05.792Z,32.30
2018-07-24T10:55:36.354Z,32.97
2018-07-24T10:58:06.864Z,33.62
2018-07-24T11:00:36.776Z,34.29
2018-07-24T11:03:07.420Z,35.06
2018-07-24T11:05:37.977Z,34.97
2018-07-24T11:08:08.555Z,34.48
2018-07-24T11:10:38.861Z,33.73
2018-07-24T11:13:09.345Z,33.37
2018-07-24T11:15:39.878Z,33.05
2018-07-24T11:18:10.350Z,32.73
2018-07-24T11:20:40.438Z,32.72
2018-07-24T11:23:11.049Z,33.85
2018-07-24T11:25:41.937Z,34.85
2018-07-24T11:28:12.446Z,35.40
2018-07-24T11:30:42.894Z,35.36
2018-07-24T11:33:13.724Z,35.68
2018-07-24T11:35:44.026Z,35.24
2018-07-24T11:38:14.496Z,34.89
2018-07-24T11:40:44.964Z,34.70
2018-07-24T11:43:15.136Z,34.56
2018-07-24T11:45:45.515Z,34.16
2018-07-24T11:48:15.978Z,33.75
2018-07-24T11:50:46.460Z,34.70
2018-07-24T11:53:16.836Z,34.68
2018-07-24T11:55:46.722Z,34.51
2018-07-24T11:58:17.289Z,34.55
2018-07-24T12:00:47.975Z,34.12
2018-07-24T12:03:18.407Z,34.04
2018-07-24T12:05:48.802Z,34.01
2018-07-24T12:08:19.302Z,33.72
2018-07-24T12:10:49.879Z,33.63
2018-07-24T12:13:20.363Z,33.46
2018-07-24T12:15:51.031Z,33.88
2018-07-24T12:18:21.405Z,33.55
2018-07-24T12:20:52.105Z,33.74
2018-07-24T12:23:22.477Z,33.67
2018-07-24T12:25:52.868Z,33.62
2018-07-24T12:28:23.355Z,34.56
2018-07-24T12:30:53.632Z,35.46
2018-07-24T12:33:23.883Z,35.27
2018-07-24T12:35:54.418Z,35.92
2018-07-24T12:38:24.832Z,36.70
2018-07-24T12:40:55.163Z,37.33
2018-07-24T12:43:25.429Z,37.33
2018-07-24T12:45:55.831Z,38.06
2018-07-24T12:48:26.196Z,38.79
2018-07-24T12:50:56.585Z,39.48
2018-07-24T12:53:27.107Z,39.76
2018-07-24T12:55:57.320Z,40.32
2018-07-24T12:58:27.623Z,41.15
2018-07-24T13:00:58.096Z,41.55
2018-07-24T13:03:28.610Z,41.63
2018-07-24T13:05:59.256Z,41.90
2018-07-24T13:08:29.470Z,42.29
2018-07-24T13:10:59.877Z,44.18
2018-07-24T13:13:30.435Z,44.88
2018-07-24T13:16:00.970Z,45.47
2018-07-24T13:18:31.462Z,45.70
2018-07-24T13:21:01.853Z,46.93
2018-07-24T13:23:32.174Z,47.49
2018-07-24T13:26:02.690Z,45.96
2018-07-24T13:28:33.258Z,43.63
2018-07-24T13:31:03.482Z,41.51
2018-07-24T13:33:33.900Z,40.30
2018-07-24T13:36:04.318Z,39.36
2018-07-24T13:38:34.534Z,37.81
2018-07-24T13:41:04.811Z,36.99
2018-07-24T13:43:35.118Z,36.17
2018-07-24T13:46:05.604Z,35.78
2018-07-24T13:48:35.832Z,35.26
2018-07-24T13:51:06.137Z,34.37
2018-07-24T13:53:36.402Z,33.91
2018-07-24T13:56:07.039Z,33.68
2018-07-24T13:58:37.243Z,33.54
2018-07-24T14:01:07.736Z,33.07
2018-07-24T14:03:38.270Z,33.02
2018-07-24T14:06:08.890Z,33.19
2018-07-24T14:08:39.366Z,33.38
2018-07-24T14:11:09.640Z,33.95
2018-07-24T14:13:40.031Z,35.72
2018-07-24T14:16:10.482Z,38.56
2018-07-24T14:18:40.872Z,40.92
2018-07-24T14:21:11.401Z,42.84
2018-07-24T14:23:41.665Z,44.59
2018-07-24T14:26:12.095Z,45.01
2018-07-24T14:28:41.994Z,46.05
2018-07-24T14:31:12.306Z,45.65
2018-07-24T14:33:42.733Z,45.16
2018-07-24T14:36:13.088Z,44.67
2018-07-24T14:38:43.676Z,44.57
2018-07-24T14:41:14.156Z,44.39
2018-07-24T14:43:44.307Z,43.93
2018-07-24T14:46:14.783Z,42.56
2018-07-24T14:48:45.189Z,41.85
2018-07-24T14:51:15.754Z,41.12
2018-07-24T14:53:46.755Z,40.92
2018-07-24T14:56:17.317Z,40.22
2018-07-24T14:58:47.926Z,40.55
2018-07-24T15:01:18.159Z,41.39
2018-07-24T15:03:48.478Z,41.78
2018-07-24T15:06:18.904Z,42.19
2018-07-24T15:08:49.390Z,42.62
2018-07-24T15:11:20.116Z,43.13
2018-07-24T15:13:50.795Z,42.57
2018-07-24T15:16:21.257Z,40.87
2018-07-24T15:18:51.636Z,39.83
2018-07-24T15:21:22.021Z,39.54
2018-07-24T15:23:52.387Z,40.12
2018-07-24T15:26:23.060Z,40.32
2018-07-24T15:28:53.631Z,40.53
2018-07-24T15:31:24.232Z,40.37
2018-07-24T15:33:54.493Z,39.80
2018-07-24T15:36:24.839Z,38.37
2018-07-24T15:38:55.346Z,38.24
2018-07-24T15:41:25.848Z,38.38
2018-07-24T15:43:56.353Z,38.86
2018-07-24T15:46:26.696Z,38.40
2018-07-24T15:48:56.997Z,38.56
2018-07-24T15:51:27.060Z,38.72
2018-07-24T15:53:57.308Z,39.07
2018-07-24T15:56:28.469Z,39.32
2018-07-24T15:58:58.453Z,39.52
2018-07-24T16:01:29.018Z,38.57
2018-07-24T16:03:59.427Z,38.06
2018-07-24T16:06:30.095Z,38.17
2018-07-24T16:09:00.129Z,37.84
2018-07-24T16:11:30.437Z,38.04
2018-07-24T16:14:00.540Z,38.30
2018-07-24T16:16:30.674Z,37.31
2018-07-24T16:19:00.671Z,36.66
2018-07-24T16:21:30.714Z,36.13
2018-07-24T16:24:06.313Z,35.81
2018-07-24T16:26:36.418Z,35.38
2018-07-24T16:29:06.486Z,35.40
2018-07-24T16:31:36.561Z,35.21
2018-07-24T16:34:07.051Z,35.08
2018-07-24T16:36:37.403Z,35.09
2018-07-24T16:39:10.928Z,35.41
2018-07-24T16:41:41.569Z,35.76
2018-07-24T16:44:11.531Z,36.15
2018-07-24T16:46:41.633Z,36.40
2018-07-24T16:49:11.741Z,36.25
2018-07-24T16:51:41.799Z,36.30
2018-07-24T16:54:12.184Z,36.38
2018-07-24T16:56:42.279Z,36.34
2018-07-24T16:59:12.818Z,36.00
2018-07-24T17:01:42.905Z,35.91
2018-07-24T17:04:12.951Z,35.84
2018-07-24T17:06:43.063Z,35.63
2018-07-24T17:09:16.022Z,35.41
2018-07-24T17:11:46.066Z,35.28
2018-07-24T17:14:16.132Z,35.20
2018-07-24T17:16:46.175Z,34.83
2018-07-24T17:19:16.163Z,34.44
2018-07-24T17:21:46.216Z,34.11
2018-07-24T17:24:16.808Z,33.77
2018-07-24T17:26:47.440Z,33.44
2018-07-24T17:29:18.087Z,33.21
2018-07-24T17:31:48.391Z,32.89
2018-07-24T17:34:18.829Z,32.64
2018-07-24T17:36:49.077Z,32.52
2018-07-24T17:39:19.587Z,32.34
2018-07-24T17:41:49.765Z,32.18
2018-07-24T17:44:20.070Z,32.08
2018-07-24T17:46:50.118Z,31.94
2018-07-24T17:49:20.184Z,31.83
2018-07-24T17:51:50.718Z,31.58
2018-07-24T17:54:21.310Z,31.43
2018-07-24T17:56:51.904Z,31.33
2018-07-24T17:59:23.200Z,31.14
2018-07-24T18:01:53.651Z,31.00
2018-07-24T18:04:23.700Z,30.90
2018-07-24T18:06:54.133Z,30.77
2018-07-24T18:09:24.623Z,30.61
2018-07-24T18:11:54.717Z,30.48
2018-07-24T18:14:25.092Z,30.28
2018-07-24T18:16:55.456Z,30.20
2018-07-24T18:19:25.973Z,30.17
2018-07-24T18:21:56.525Z,30.07
2018-07-24T18:24:27.120Z,29.90
2018-07-24T18:26:57.631Z,29.62
2018-07-24T18:29:27.661Z,29.38
2018-07-24T18:31:57.705Z,29.23
2018-07-24T18:34:27.769Z,29.06
2018-07-24T18:36:57.760Z,28.90
2018-07-24T18:39:28.425Z,28.72
2018-07-24T18:41:58.723Z,28.53
2018-07-24T18:44:29.244Z,28.33
2018-07-24T18:46:59.561Z,28.17
2018-07-24T18:49:29.608Z,28.03
2018-07-24T18:51:59.828Z,27.89
2018-07-24T18:54:30.882Z,27.81
2018-07-24T18:57:00.904Z,27.59
2018-07-24T18:59:30.944Z,27.46
2018-07-24T19:02:01.081Z,27.36
2018-07-24T19:04:31.173Z,27.26
2018-07-24T19:07:01.261Z,27.16
2018-07-24T19:09:31.310Z,27.04
2018-07-24T19:12:01.306Z,26.92
2018-07-24T19:14:31.355Z,26.82
2018-07-24T19:17:01.706Z,26.74
2018-07-24T19:19:32.051Z,26.72
2018-07-24T19:22:02.139Z,26.72
2018-07-24T19:24:32.281Z,26.74
2018-07-24T19:27:02.474Z,26.78
2018-07-24T19:29:32.832Z,26.68
2018-07-24T19:32:03.063Z,26.52
2018-07-24T19:34:33.671Z,26.44
2018-07-24T19:37:03.627Z,26.34
2018-07-24T19:39:34.060Z,26.29
2018-07-24T19:42:04.461Z,26.29
2018-07-24T19:44:34.491Z,26.25
2018-07-24T19:47:04.976Z,26.19
2018-07-24T19:49:35.514Z,26.13
2018-07-24T19:52:05.921Z,26.02
2018-07-24T19:54:36.611Z,26.00
2018-07-24T19:57:07.194Z,25.93
2018-07-24T19:59:37.746Z,25.91
2018-07-24T20:02:08.135Z,25.81
2018-07-24T20:04:39.224Z,25.87
2018-07-24T20:07:09.688Z,25.68
2018-07-24T20:09:40.168Z,25.63
2018-07-24T20:12:10.589Z,25.61
2018-07-24T20:14:41.241Z,25.62
2018-07-24T20:17:11.869Z,25.60
2018-07-24T20:19:42.220Z,25.48
2018-07-24T20:22:12.721Z,25.46
2018-07-24T20:24:43.258Z,25.47
2018-07-24T20:27:14.297Z,25.37
2018-07-24T20:29:44.807Z,25.52
2018-07-24T20:32:15.212Z,25.73
2018-07-24T20:34:45.647Z,25.84
2018-07-24T20:37:15.794Z,25.89
2018-07-24T20:39:46.099Z,25.93
2018-07-24T20:42:16.729Z,25.91
2018-07-24T20:44:47.185Z,25.79
2018-07-24T20:47:17.799Z,25.76
2018-07-24T20:49:48.076Z,25.75
2018-07-24T20:52:19.147Z,25.65
2018-07-24T20:54:49.528Z,25.69
2018-07-24T20:57:20.017Z,25.57
2018-07-24T20:59:50.504Z,25.54
2018-07-24T21:02:20.947Z,25.48
2018-07-24T21:04:51.460Z,25.35
2018-07-24T21:07:22.145Z,25.38
2018-07-24T21:09:53.063Z,25.30
2018-07-24T21:12:23.592Z,25.27
2018-07-24T21:14:54.180Z,25.27
2018-07-24T21:17:24.772Z,25.23
2018-07-24T21:19:55.117Z,25.11
2018-07-24T21:22:25.519Z,25.16
2018-07-24T21:24:56.056Z,25.09
2018-07-24T21:27:26.472Z,25.08
2018-07-24T21:29:57.161Z,25.02
2018-07-24T21:32:27.668Z,24.93
2018-07-24T21:34:57.993Z,24.89
2018-07-24T21:37:28.515Z,24.91
2018-07-24T21:39:59.049Z,24.90
2018-07-24T21:42:29.680Z,24.87
2018-07-24T21:45:00.178Z,24.82
2018-07-24T21:47:30.489Z,24.77
2018-07-24T21:50:01.008Z,24.64
2018-07-24T21:52:31.572Z,24.46
2018-07-24T21:55:02.138Z,24.53
2018-07-24T21:57:32.580Z,24.46
2018-07-24T22:00:02.912Z,24.43
2018-07-24T22:02:33.400Z,24.38
2018-07-24T22:05:03.697Z,24.29
2018-07-24T22:07:35.206Z,24.29
2018-07-24T22:10:09.611Z,24.24
2018-07-24T22:12:40.085Z,24.29
2018-07-24T22:15:15.499Z,24.15
2018-07-24T22:17:46.070Z,24.17
2018-07-24T22:20:16.246Z,24.09
2018-07-24T22:22:46.711Z,24.01
2018-07-24T22:25:17.516Z,23.94
2018-07-24T22:27:47.944Z,23.94
2018-07-24T22:30:18.515Z,23.80
2018-07-24T22:32:48.820Z,23.69
2018-07-24T22:35:19.179Z,23.59
2018-07-24T22:37:49.856Z,23.67
2018-07-24T22:40:20.285Z,23.69
2018-07-24T22:42:50.917Z,23.73
2018-07-24T22:45:22.399Z,23.70
2018-07-24T22:47:52.293Z,23.79
2018-07-24T22:50:22.705Z,23.77
2018-07-24T22:52:53.073Z,23.68
2018-07-24T22:55:23.611Z,23.58
2018-07-24T22:57:54.788Z,23.40
2018-07-24T23:00:25.258Z,23.39
2018-07-24T23:02:55.903Z,23.35
2018-07-24T23:05:25.963Z,23.35
2018-07-24T23:07:56.285Z,23.38
2018-07-24T23:10:31.911Z,23.40
2018-07-24T23:13:04.193Z,23.33
2018-07-24T23:15:34.616Z,23.27
2018-07-24T23:18:05.131Z,23.27
2018-07-24T23:20:35.459Z,23.22
2018-07-24T23:23:05.622Z,23.22
2018-07-24T23:25:36.063Z,23.11
2018-07-24T23:28:06.923Z,23.04
2018-07-24T23:30:37.015Z,23.11
2018-07-24T23:33:07.315Z,23.11
2018-07-24T23:35:37.758Z,23.04
2018-07-24T23:38:08.512Z,23.02
2018-07-24T23:40:38.931Z,22.88
2018-07-24T23:43:09.513Z,22.83
2018-07-24T23:45:40.688Z,22.78
2018-07-24T23:48:11.281Z,22.71
2018-07-24T23:50:41.781Z,22.57
2018-07-24T23:53:12.439Z,22.47
2018-07-24T23:55:42.710Z,22.48
2018-07-24T23:58:13.214Z,22.48
